Sabetha, Kansas
Current Conditions -  °F | °C
As of 4:53 PM on Monday 24 Nov 2014 (Local Time) from KFNB Reporting Station
Clear Clear  
Wind Chill: 27°   Ceiling: Unl
Heat Index: 36°   Visibility: 10mi
Dew Point: 19°   Wind: 14mph
Humidity: 50%   Direction: 300°WNW
Pressure: 29.9"   Gusts: NA
Location:  39.9°N, 95.8°W
Report Text: KFNB 242253Z AUTO 30012KT 10SM CLR 02/M07 A2990 RMK AO2 SLP133 T00221072
Loading
Personal Weather Stations






























Interactive Weather Map New forecast layout! Learn more

10-Day Weather Forecast

Advertisements
Track Severe Weather on mobile